sensor_id;sensor_type;location;lat;lon;timestamp;P1;durP1;ratioP1;P2;durP2;ratioP2
48042;SDS011;33988;47.992;8.820;2022-07-29T00:00:38;5.25;;;4.07;;
48042;SDS011;33988;47.992;8.820;2022-07-29T00:03:05;8.98;;;5.88;;
48042;SDS011;33988;47.992;8.820;2022-07-29T00:05:34;7.85;;;5.55;;
48042;SDS011;33988;47.992;8.820;2022-07-29T00:08:01;4.75;;;4.25;;
48042;SDS011;33988;47.992;8.820;2022-07-29T00:10:37;5.15;;;4.05;;
48042;SDS011;33988;47.992;8.820;2022-07-29T00:13:04;6.78;;;4.68;;
48042;SDS011;33988;47.992;8.820;2022-07-29T00:15:34;6.78;;;4.78;;
48042;SDS011;33988;47.992;8.820;2022-07-29T00:18:01;10.40;;;6.15;;
48042;SDS011;33988;47.992;8.820;2022-07-29T00:20:28;10.55;;;6.93;;
48042;SDS011;33988;47.992;8.820;2022-07-29T00:22:57;7.88;;;5.78;;
48042;SDS011;33988;47.992;8.820;2022-07-29T00:25:24;7.72;;;5.35;;
48042;SDS011;33988;47.992;8.820;2022-07-29T00:27:54;12.60;;;5.90;;
48042;SDS011;33988;47.992;8.820;2022-07-29T00:30:21;13.82;;;7.00;;
48042;SDS011;33988;47.992;8.820;2022-07-29T00:32:48;10.55;;;5.78;;
48042;SDS011;33988;47.992;8.820;2022-07-29T00:35:15;10.10;;;6.40;;
48042;SDS011;33988;47.992;8.820;2022-07-29T00:38:00;10.27;;;6.30;;
48042;SDS011;33988;47.992;8.820;2022-07-29T00:40:27;11.45;;;6.20;;
48042;SDS011;33988;47.992;8.820;2022-07-29T00:42:56;10.32;;;6.53;;
48042;SDS011;33988;47.992;8.820;2022-07-29T00:45:24;10.15;;;6.38;;
48042;SDS011;33988;47.992;8.820;2022-07-29T00:47:54;8.18;;;6.13;;
48042;SDS011;33988;47.992;8.820;2022-07-29T00:50:20;8.98;;;6.03;;
48042;SDS011;33988;47.992;8.820;2022-07-29T00:52:50;6.97;;;4.90;;
48042;SDS011;33988;47.992;8.820;2022-07-29T00:55:18;11.13;;;5.70;;
48042;SDS011;33988;47.992;8.820;2022-07-29T00:57:47;5.88;;;4.78;;
48042;SDS011;33988;47.992;8.820;2022-07-29T01:00:17;8.23;;;5.15;;
48042;SDS011;33988;47.992;8.820;2022-07-29T01:02:51;13.18;;;6.85;;
48042;SDS011;33988;47.992;8.820;2022-07-29T01:05:21;14.57;;;8.13;;
48042;SDS011;33988;47.992;8.820;2022-07-29T01:08:11;14.90;;;7.85;;
48042;SDS011;33988;47.992;8.820;2022-07-29T01:10:42;11.35;;;7.10;;
48042;SDS011;33988;47.992;8.820;2022-07-29T01:13:12;9.25;;;5.57;;
48042;SDS011;33988;47.992;8.820;2022-07-29T01:15:47;10.70;;;6.30;;
48042;SDS011;33988;47.992;8.820;2022-07-29T01:18:22;10.18;;;6.35;;
48042;SDS011;33988;47.992;8.820;2022-07-29T01:24:11;5.40;;;4.10;;
48042;SDS011;33988;47.992;8.820;2022-07-29T01:27:04;4.72;;;3.55;;
48042;SDS011;33988;47.992;8.820;2022-07-29T01:29:48;5.50;;;3.88;;
48042;SDS011;33988;47.992;8.820;2022-07-29T01:32:25;6.45;;;3.75;;
48042;SDS011;33988;47.992;8.820;2022-07-29T01:35:05;6.18;;;4.47;;
48042;SDS011;33988;47.992;8.820;2022-07-29T01:40:49;6.15;;;4.28;;
48042;SDS011;33988;47.992;8.820;2022-07-29T01:43:27;4.78;;;3.50;;
48042;SDS011;33988;47.992;8.820;2022-07-29T01:46:31;5.47;;;4.25;;
48042;SDS011;33988;47.992;8.820;2022-07-29T01:49:11;4.10;;;3.53;;
48042;SDS011;33988;47.992;8.820;2022-07-29T01:51:53;4.05;;;3.15;;
48042;SDS011;33988;47.992;8.820;2022-07-29T01:54:38;2.97;;;2.67;;
48042;SDS011;33988;47.992;8.820;2022-07-29T01:57:21;9.90;;;5.50;;
48042;SDS011;33988;47.992;8.820;2022-07-29T01:59:54;5.65;;;4.28;;
48042;SDS011;33988;47.992;8.820;2022-07-29T02:02:26;6.68;;;3.10;;
48042;SDS011;33988;47.992;8.820;2022-07-29T02:04:56;3.80;;;3.30;;
48042;SDS011;33988;47.992;8.820;2022-07-29T02:07:27;3.25;;;2.95;;
48042;SDS011;33988;47.992;8.820;2022-07-29T02:10:02;3.53;;;2.85;;
48042;SDS011;33988;47.992;8.820;2022-07-29T02:12:30;3.13;;;2.35;;
48042;SDS011;33988;47.992;8.820;2022-07-29T02:15:01;2.60;;;2.40;;
48042;SDS011;33988;47.992;8.820;2022-07-29T02:17:45;3.67;;;2.75;;
48042;SDS011;33988;47.992;8.820;2022-07-29T02:20:19;2.75;;;2.35;;
48042;SDS011;33988;47.992;8.820;2022-07-29T02:22:48;4.13;;;2.90;;
48042;SDS011;33988;47.992;8.820;2022-07-29T02:25:20;3.78;;;3.00;;
48042;SDS011;33988;47.992;8.820;2022-07-29T02:27:51;3.83;;;2.85;;
48042;SDS011;33988;47.992;8.820;2022-07-29T02:30:19;3.08;;;2.75;;
48042;SDS011;33988;47.992;8.820;2022-07-29T02:32:51;3.28;;;2.40;;
48042;SDS011;33988;47.992;8.820;2022-07-29T02:35:22;4.10;;;3.17;;
48042;SDS011;33988;47.992;8.820;2022-07-29T02:37:53;7.47;;;2.97;;
48042;SDS011;33988;47.992;8.820;2022-07-29T02:40:44;7.90;;;2.78;;
48042;SDS011;33988;47.992;8.820;2022-07-29T02:45:40;8.50;;;4.20;;
48042;SDS011;33988;47.992;8.820;2022-07-29T02:48:17;9.07;;;6.10;;
48042;SDS011;33988;47.992;8.820;2022-07-29T02:50:58;8.68;;;5.47;;
48042;SDS011;33988;47.992;8.820;2022-07-29T02:53:33;7.75;;;4.88;;
48042;SDS011;33988;47.992;8.820;2022-07-29T02:56:04;6.80;;;4.72;;
48042;SDS011;33988;47.992;8.820;2022-07-29T02:58:38;7.50;;;5.25;;
48042;SDS011;33988;47.992;8.820;2022-07-29T03:01:19;7.63;;;5.03;;
48042;SDS011;33988;47.992;8.820;2022-07-29T03:03:50;5.95;;;4.18;;
48042;SDS011;33988;47.992;8.820;2022-07-29T03:06:20;7.05;;;3.45;;
48042;SDS011;33988;47.992;8.820;2022-07-29T03:09:06;6.60;;;4.03;;
48042;SDS011;33988;47.992;8.820;2022-07-29T03:11:39;7.95;;;4.57;;
48042;SDS011;33988;47.992;8.820;2022-07-29T03:14:19;5.88;;;4.47;;
48042;SDS011;33988;47.992;8.820;2022-07-29T03:16:47;6.50;;;4.60;;
48042;SDS011;33988;47.992;8.820;2022-07-29T03:19:18;6.03;;;3.97;;
48042;SDS011;33988;47.992;8.820;2022-07-29T03:21:46;7.65;;;4.80;;
48042;SDS011;33988;47.992;8.820;2022-07-29T03:27:01;4.40;;;3.53;;
48042;SDS011;33988;47.992;8.820;2022-07-29T03:29:29;5.53;;;3.63;;
48042;SDS011;33988;47.992;8.820;2022-07-29T03:31:59;6.63;;;4.20;;
48042;SDS011;33988;47.992;8.820;2022-07-29T03:34:34;10.77;;;4.38;;
48042;SDS011;33988;47.992;8.820;2022-07-29T03:37:07;13.70;;;4.15;;
48042;SDS011;33988;47.992;8.820;2022-07-29T03:39:36;9.63;;;3.20;;
48042;SDS011;33988;47.992;8.820;2022-07-29T03:42:07;10.82;;;3.33;;
48042;SDS011;33988;47.992;8.820;2022-07-29T03:44:38;4.40;;;3.45;;
48042;SDS011;33988;47.992;8.820;2022-07-29T03:47:08;3.70;;;2.88;;
48042;SDS011;33988;47.992;8.820;2022-07-29T03:49:37;7.03;;;2.78;;
48042;SDS011;33988;47.992;8.820;2022-07-29T03:52:07;2.92;;;2.63;;
48042;SDS011;33988;47.992;8.820;2022-07-29T03:54:36;3.90;;;2.92;;
48042;SDS011;33988;47.992;8.820;2022-07-29T03:57:03;3.38;;;3.03;;
48042;SDS011;33988;47.992;8.820;2022-07-29T03:59:33;5.68;;;2.80;;
48042;SDS011;33988;47.992;8.820;2022-07-29T04:02:01;3.10;;;2.80;;
48042;SDS011;33988;47.992;8.820;2022-07-29T04:04:34;4.88;;;3.13;;
48042;SDS011;33988;47.992;8.820;2022-07-29T04:07:02;4.35;;;3.10;;
48042;SDS011;33988;47.992;8.820;2022-07-29T04:09:29;3.50;;;2.78;;
48042;SDS011;33988;47.992;8.820;2022-07-29T04:11:59;3.28;;;2.80;;
48042;SDS011;33988;47.992;8.820;2022-07-29T04:14:33;3.15;;;2.85;;
48042;SDS011;33988;47.992;8.820;2022-07-29T04:17:01;4.13;;;3.60;;
48042;SDS011;33988;47.992;8.820;2022-07-29T04:19:29;2.95;;;2.55;;
48042;SDS011;33988;47.992;8.820;2022-07-29T04:21:57;2.78;;;2.58;;
48042;SDS011;33988;47.992;8.820;2022-07-29T04:24:29;3.22;;;2.67;;
48042;SDS011;33988;47.992;8.820;2022-07-29T04:26:56;3.25;;;2.17;;
48042;SDS011;33988;47.992;8.820;2022-07-29T04:29:23;5.25;;;2.40;;
48042;SDS011;33988;47.992;8.820;2022-07-29T04:31:50;3.65;;;2.47;;
48042;SDS011;33988;47.992;8.820;2022-07-29T04:34:19;2.40;;;2.05;;
48042;SDS011;33988;47.992;8.820;2022-07-29T04:36:53;4.68;;;2.83;;
48042;SDS011;33988;47.992;8.820;2022-07-29T04:39:21;3.10;;;2.80;;
48042;SDS011;33988;47.992;8.820;2022-07-29T04:41:54;3.25;;;2.35;;
48042;SDS011;33988;47.992;8.820;2022-07-29T04:44:24;2.63;;;2.33;;
48042;SDS011;33988;47.992;8.820;2022-07-29T04:46:54;3.05;;;2.47;;
48042;SDS011;33988;47.992;8.820;2022-07-29T04:49:21;2.47;;;2.28;;
48042;SDS011;33988;47.992;8.820;2022-07-29T04:51:49;2.33;;;2.13;;
48042;SDS011;33988;47.992;8.820;2022-07-29T04:54:18;2.70;;;2.42;;
48042;SDS011;33988;47.992;8.820;2022-07-29T04:56:45;5.85;;;2.55;;
48042;SDS011;33988;47.992;8.820;2022-07-29T04:59:14;2.45;;;2.25;;
48042;SDS011;33988;47.992;8.820;2022-07-29T05:01:41;2.92;;;2.47;;
48042;SDS011;33988;47.992;8.820;2022-07-29T05:04:08;3.15;;;2.78;;
48042;SDS011;33988;47.992;8.820;2022-07-29T05:06:39;3.50;;;2.72;;
48042;SDS011;33988;47.992;8.820;2022-07-29T05:09:06;3.83;;;2.95;;
48042;SDS011;33988;47.992;8.820;2022-07-29T05:11:37;5.20;;;2.90;;
48042;SDS011;33988;47.992;8.820;2022-07-29T05:14:06;4.05;;;2.80;;
48042;SDS011;33988;47.992;8.820;2022-07-29T05:16:33;4.05;;;2.83;;
48042;SDS011;33988;47.992;8.820;2022-07-29T05:19:00;6.20;;;3.15;;
48042;SDS011;33988;47.992;8.820;2022-07-29T05:21:30;3.67;;;3.28;;
48042;SDS011;33988;47.992;8.820;2022-07-29T05:24:02;3.58;;;3.03;;
48042;SDS011;33988;47.992;8.820;2022-07-29T05:26:31;8.80;;;3.22;;
48042;SDS011;33988;47.992;8.820;2022-07-29T05:29:01;4.05;;;3.35;;
48042;SDS011;33988;47.992;8.820;2022-07-29T05:31:30;3.30;;;2.88;;
48042;SDS011;33988;47.992;8.820;2022-07-29T05:33:57;3.08;;;2.80;;
48042;SDS011;33988;47.992;8.820;2022-07-29T05:36:24;6.28;;;3.38;;
48042;SDS011;33988;47.992;8.820;2022-07-29T05:38:51;5.32;;;4.22;;
48042;SDS011;33988;47.992;8.820;2022-07-29T05:41:21;5.72;;;3.92;;
48042;SDS011;33988;47.992;8.820;2022-07-29T05:43:48;4.40;;;3.97;;
48042;SDS011;33988;47.992;8.820;2022-07-29T05:46:15;4.72;;;3.90;;
48042;SDS011;33988;47.992;8.820;2022-07-29T05:48:45;4.93;;;4.00;;
48042;SDS011;33988;47.992;8.820;2022-07-29T05:51:14;4.60;;;3.83;;
48042;SDS011;33988;47.992;8.820;2022-07-29T05:53:41;5.03;;;4.47;;
48042;SDS011;33988;47.992;8.820;2022-07-29T05:56:08;8.20;;;5.30;;
48042;SDS011;33988;47.992;8.820;2022-07-29T05:58:35;8.45;;;5.60;;
48042;SDS011;33988;47.992;8.820;2022-07-29T06:01:05;7.32;;;5.57;;
48042;SDS011;33988;47.992;8.820;2022-07-29T06:03:31;8.15;;;5.88;;
48042;SDS011;33988;47.992;8.820;2022-07-29T06:05:58;7.57;;;5.40;;
48042;SDS011;33988;47.992;8.820;2022-07-29T06:08:25;7.55;;;6.07;;
48042;SDS011;33988;47.992;8.820;2022-07-29T06:11:00;6.57;;;5.63;;
48042;SDS011;33988;47.992;8.820;2022-07-29T06:13:33;6.03;;;5.03;;
48042;SDS011;33988;47.992;8.820;2022-07-29T06:16:00;7.78;;;5.90;;
48042;SDS011;33988;47.992;8.820;2022-07-29T06:18:27;10.95;;;5.90;;
48042;SDS011;33988;47.992;8.820;2022-07-29T06:20:57;9.43;;;6.00;;
48042;SDS011;33988;47.992;8.820;2022-07-29T06:23:27;9.57;;;5.88;;
48042;SDS011;33988;47.992;8.820;2022-07-29T06:25:54;6.97;;;5.35;;
48042;SDS011;33988;47.992;8.820;2022-07-29T06:28:23;7.00;;;4.97;;
48042;SDS011;33988;47.992;8.820;2022-07-29T06:30:50;6.47;;;5.57;;
48042;SDS011;33988;47.992;8.820;2022-07-29T06:33:17;5.47;;;4.68;;
48042;SDS011;33988;47.992;8.820;2022-07-29T06:35:45;3.78;;;3.38;;
48042;SDS011;33988;47.992;8.820;2022-07-29T06:38:20;4.22;;;3.70;;
48042;SDS011;33988;47.992;8.820;2022-07-29T06:40:59;4.45;;;2.95;;
48042;SDS011;33988;47.992;8.820;2022-07-29T06:43:34;3.30;;;3.00;;
48042;SDS011;33988;47.992;8.820;2022-07-29T06:46:20;2.55;;;2.35;;
48042;SDS011;33988;47.992;8.820;2022-07-29T06:51:19;2.75;;;2.55;;
48042;SDS011;33988;47.992;8.820;2022-07-29T06:53:48;2.63;;;2.42;;
48042;SDS011;33988;47.992;8.820;2022-07-29T06:56:28;4.68;;;3.28;;
48042;SDS011;33988;47.992;8.820;2022-07-29T06:59:05;5.70;;;4.00;;
48042;SDS011;33988;47.992;8.820;2022-07-29T07:01:35;4.05;;;3.70;;
48042;SDS011;33988;47.992;8.820;2022-07-29T07:04:07;3.55;;;3.22;;
48042;SDS011;33988;47.992;8.820;2022-07-29T07:06:37;4.82;;;3.72;;
48042;SDS011;33988;47.992;8.820;2022-07-29T07:09:05;4.15;;;3.65;;
48042;SDS011;33988;47.992;8.820;2022-07-29T07:11:32;4.20;;;3.80;;
48042;SDS011;33988;47.992;8.820;2022-07-29T07:13:59;4.22;;;3.55;;
48042;SDS011;33988;47.992;8.820;2022-07-29T07:16:29;3.45;;;3.10;;
48042;SDS011;33988;47.992;8.820;2022-07-29T07:18:58;3.45;;;3.15;;
48042;SDS011;33988;47.992;8.820;2022-07-29T07:21:25;8.60;;;3.13;;
48042;SDS011;33988;47.992;8.820;2022-07-29T07:23:56;2.80;;;2.60;;
48042;SDS011;33988;47.992;8.820;2022-07-29T07:26:23;3.33;;;2.83;;
48042;SDS011;33988;47.992;8.820;2022-07-29T07:28:51;3.42;;;3.13;;
48042;SDS011;33988;47.992;8.820;2022-07-29T07:31:20;3.20;;;2.90;;
48042;SDS011;33988;47.992;8.820;2022-07-29T07:33:47;3.97;;;3.45;;
48042;SDS011;33988;47.992;8.820;2022-07-29T07:36:17;2.97;;;2.70;;
48042;SDS011;33988;47.992;8.820;2022-07-29T07:38:51;3.42;;;3.13;;
48042;SDS011;33988;47.992;8.820;2022-07-29T07:41:18;3.80;;;2.75;;
48042;SDS011;33988;47.992;8.820;2022-07-29T07:43:45;3.20;;;2.80;;
48042;SDS011;33988;47.992;8.820;2022-07-29T07:46:15;3.65;;;3.30;;
48042;SDS011;33988;47.992;8.820;2022-07-29T07:48:44;4.22;;;3.33;;
48042;SDS011;33988;47.992;8.820;2022-07-29T07:51:16;4.35;;;3.40;;
48042;SDS011;33988;47.992;8.820;2022-07-29T07:53:45;3.60;;;3.30;;
48042;SDS011;33988;47.992;8.820;2022-07-29T07:56:16;3.45;;;3.15;;
48042;SDS011;33988;47.992;8.820;2022-07-29T07:58:46;4.25;;;3.47;;
48042;SDS011;33988;47.992;8.820;2022-07-29T08:01:13;4.30;;;3.67;;
48042;SDS011;33988;47.992;8.820;2022-07-29T08:03:40;4.13;;;3.72;;
48042;SDS011;33988;47.992;8.820;2022-07-29T08:06:11;3.60;;;3.30;;
48042;SDS011;33988;47.992;8.820;2022-07-29T08:08:38;3.65;;;3.35;;
48042;SDS011;33988;47.992;8.820;2022-07-29T08:11:05;4.35;;;3.88;;
48042;SDS011;33988;47.992;8.820;2022-07-29T08:13:37;3.72;;;3.42;;
48042;SDS011;33988;47.992;8.820;2022-07-29T08:16:07;3.92;;;3.63;;
48042;SDS011;33988;47.992;8.820;2022-07-29T08:18:40;3.95;;;3.05;;
48042;SDS011;33988;47.992;8.820;2022-07-29T08:21:08;4.93;;;3.38;;
48042;SDS011;33988;47.992;8.820;2022-07-29T08:23:35;3.67;;;3.25;;
48042;SDS011;33988;47.992;8.820;2022-07-29T08:26:13;4.28;;;3.08;;
48042;SDS011;33988;47.992;8.820;2022-07-29T08:28:41;4.35;;;2.85;;
48042;SDS011;33988;47.992;8.820;2022-07-29T08:31:15;6.03;;;3.38;;
48042;SDS011;33988;47.992;8.820;2022-07-29T08:33:43;6.25;;;3.47;;
48042;SDS011;33988;47.992;8.820;2022-07-29T08:36:13;3.33;;;3.03;;
48042;SDS011;33988;47.992;8.820;2022-07-29T08:38:43;3.85;;;3.20;;
48042;SDS011;33988;47.992;8.820;2022-07-29T08:41:12;3.40;;;3.10;;
48042;SDS011;33988;47.992;8.820;2022-07-29T08:43:39;4.20;;;3.30;;
48042;SDS011;33988;47.992;8.820;2022-07-29T08:46:07;6.25;;;3.25;;
48042;SDS011;33988;47.992;8.820;2022-07-29T08:48:37;3.40;;;2.78;;
48042;SDS011;33988;47.992;8.820;2022-07-29T08:51:07;2.95;;;2.67;;
48042;SDS011;33988;47.992;8.820;2022-07-29T08:53:40;5.18;;;3.08;;
48042;SDS011;33988;47.992;8.820;2022-07-29T08:56:13;2.85;;;2.65;;
48042;SDS011;33988;47.992;8.820;2022-07-29T08:58:43;3.08;;;2.60;;
48042;SDS011;33988;47.992;8.820;2022-07-29T09:01:20;2.88;;;2.63;;
48042;SDS011;33988;47.992;8.820;2022-07-29T09:04:03;3.60;;;2.58;;
48042;SDS011;33988;47.992;8.820;2022-07-29T09:06:36;3.38;;;2.63;;
48042;SDS011;33988;47.992;8.820;2022-07-29T09:09:11;3.25;;;2.95;;
48042;SDS011;33988;47.992;8.820;2022-07-29T09:11:40;3.17;;;2.83;;
48042;SDS011;33988;47.992;8.820;2022-07-29T09:14:08;2.70;;;2.50;;
48042;SDS011;33988;47.992;8.820;2022-07-29T09:22:06;3.25;;;2.75;;
48042;SDS011;33988;47.992;8.820;2022-07-29T09:27:23;5.50;;;4.13;;
48042;SDS011;33988;47.992;8.820;2022-07-29T09:29:58;3.47;;;2.78;;
48042;SDS011;33988;47.992;8.820;2022-07-29T09:32:29;3.35;;;2.78;;
48042;SDS011;33988;47.992;8.820;2022-07-29T09:37:43;3.08;;;2.78;;
48042;SDS011;33988;47.992;8.820;2022-07-29T09:40:12;3.05;;;2.72;;
48042;SDS011;33988;47.992;8.820;2022-07-29T09:42:48;2.80;;;2.58;;
48042;SDS011;33988;47.992;8.820;2022-07-29T09:45:39;2.13;;;1.95;;
48042;SDS011;33988;47.992;8.820;2022-07-29T09:48:15;5.18;;;2.53;;
48042;SDS011;33988;47.992;8.820;2022-07-29T09:50:47;2.63;;;2.42;;
48042;SDS011;33988;47.992;8.820;2022-07-29T09:53:35;2.60;;;2.20;;
48042;SDS011;33988;47.992;8.820;2022-07-29T09:56:04;4.55;;;1.85;;
48042;SDS011;33988;47.992;8.820;2022-07-29T09:58:34;2.30;;;2.10;;
48042;SDS011;33988;47.992;8.820;2022-07-29T10:01:04;3.28;;;2.60;;
48042;SDS011;33988;47.992;8.820;2022-07-29T10:03:35;3.53;;;2.17;;
48042;SDS011;33988;47.992;8.820;2022-07-29T10:06:18;2.25;;;2.05;;
48042;SDS011;33988;47.992;8.820;2022-07-29T10:08:45;5.10;;;2.28;;
48042;SDS011;33988;47.992;8.820;2022-07-29T10:11:18;4.18;;;2.80;;
48042;SDS011;33988;47.992;8.820;2022-07-29T10:13:48;3.05;;;2.78;;
48042;SDS011;33988;47.992;8.820;2022-07-29T10:16:15;2.75;;;2.17;;
48042;SDS011;33988;47.992;8.820;2022-07-29T10:18:43;2.75;;;2.45;;
48042;SDS011;33988;47.992;8.820;2022-07-29T10:21:10;2.47;;;2.28;;
48042;SDS011;33988;47.992;8.820;2022-07-29T10:23:59;6.03;;;2.55;;
48042;SDS011;33988;47.992;8.820;2022-07-29T10:26:29;3.05;;;2.72;;
48042;SDS011;33988;47.992;8.820;2022-07-29T10:29:00;3.38;;;2.75;;
48042;SDS011;33988;47.992;8.820;2022-07-29T10:31:29;2.40;;;2.20;;
48042;SDS011;33988;47.992;8.820;2022-07-29T10:44:19;3.20;;;2.53;;
48042;SDS011;33988;47.992;8.820;2022-07-29T10:46:51;3.70;;;2.40;;
48042;SDS011;33988;47.992;8.820;2022-07-29T10:49:23;2.50;;;2.30;;
48042;SDS011;33988;47.992;8.820;2022-07-29T10:52:03;2.38;;;2.17;;
48042;SDS011;33988;47.992;8.820;2022-07-29T10:59:39;2.47;;;2.28;;
48042;SDS011;33988;47.992;8.820;2022-07-29T11:07:38;2.13;;;1.92;;
48042;SDS011;33988;47.992;8.820;2022-07-29T11:10:27;2.22;;;2.03;;
48042;SDS011;33988;47.992;8.820;2022-07-29T11:12:59;2.80;;;2.08;;
48042;SDS011;33988;47.992;8.820;2022-07-29T11:15:51;2.08;;;1.85;;
48042;SDS011;33988;47.992;8.820;2022-07-29T11:18:21;2.15;;;1.92;;
48042;SDS011;33988;47.992;8.820;2022-07-29T11:20:51;2.85;;;2.20;;
48042;SDS011;33988;47.992;8.820;2022-07-29T11:26:18;1.80;;;1.70;;
48042;SDS011;33988;47.992;8.820;2022-07-29T11:45:18;1.77;;;1.67;;
48042;SDS011;33988;47.992;8.820;2022-07-29T11:48:07;2.35;;;1.50;;
48042;SDS011;33988;47.992;8.820;2022-07-29T11:50:57;1.77;;;1.67;;
48042;SDS011;33988;47.992;8.820;2022-07-29T11:53:25;2.22;;;1.70;;
48042;SDS011;33988;47.992;8.820;2022-07-29T11:56:13;2.13;;;1.70;;
48042;SDS011;33988;47.992;8.820;2022-07-29T11:58:43;1.58;;;1.45;;
48042;SDS011;33988;47.992;8.820;2022-07-29T12:01:13;1.92;;;1.58;;
48042;SDS011;33988;47.992;8.820;2022-07-29T12:03:44;1.50;;;1.40;;
48042;SDS011;33988;47.992;8.820;2022-07-29T12:06:13;2.30;;;1.65;;
48042;SDS011;33988;47.992;8.820;2022-07-29T12:08:46;3.97;;;1.63;;
48042;SDS011;33988;47.992;8.820;2022-07-29T12:11:17;2.03;;;1.83;;
48042;SDS011;33988;47.992;8.820;2022-07-29T12:13:49;2.65;;;1.60;;
48042;SDS011;33988;47.992;8.820;2022-07-29T12:16:18;2.70;;;1.92;;
48042;SDS011;33988;47.992;8.820;2022-07-29T12:18:55;1.70;;;1.60;;
48042;SDS011;33988;47.992;8.820;2022-07-29T12:21:24;1.92;;;1.73;;
48042;SDS011;33988;47.992;8.820;2022-07-29T12:23:54;1.55;;;1.45;;
48042;SDS011;33988;47.992;8.820;2022-07-29T12:26:34;1.80;;;1.57;;
48042;SDS011;33988;47.992;8.820;2022-07-29T12:29:02;3.40;;;1.75;;
48042;SDS011;33988;47.992;8.820;2022-07-29T12:31:40;1.80;;;1.70;;
48042;SDS011;33988;47.992;8.820;2022-07-29T12:34:11;1.77;;;1.67;;
48042;SDS011;33988;47.992;8.820;2022-07-29T12:36:40;3.28;;;2.08;;
48042;SDS011;33988;47.992;8.820;2022-07-29T12:39:11;2.90;;;1.95;;
48042;SDS011;33988;47.992;8.820;2022-07-29T12:41:38;1.95;;;1.83;;
48042;SDS011;33988;47.992;8.820;2022-07-29T12:44:08;2.38;;;2.17;;
48042;SDS011;33988;47.992;8.820;2022-07-29T12:46:37;2.53;;;2.15;;
48042;SDS011;33988;47.992;8.820;2022-07-29T12:49:05;2.45;;;1.75;;
48042;SDS011;33988;47.992;8.820;2022-07-29T12:51:37;3.13;;;1.95;;
48042;SDS011;33988;47.992;8.820;2022-07-29T12:54:10;23.10;;;4.00;;
48042;SDS011;33988;47.992;8.820;2022-07-29T12:56:43;6.95;;;2.78;;
48042;SDS011;33988;47.992;8.820;2022-07-29T12:59:16;8.70;;;2.88;;
48042;SDS011;33988;47.992;8.820;2022-07-29T13:01:46;7.15;;;2.58;;
48042;SDS011;33988;47.992;8.820;2022-07-29T13:04:27;4.65;;;2.00;;
48042;SDS011;33988;47.992;8.820;2022-07-29T13:07:00;10.02;;;2.47;;
48042;SDS011;33988;47.992;8.820;2022-07-29T13:09:42;2.80;;;1.73;;
48042;SDS011;33988;47.992;8.820;2022-07-29T13:12:13;6.18;;;2.05;;
48042;SDS011;33988;47.992;8.820;2022-07-29T13:14:45;2.13;;;1.77;;
48042;SDS011;33988;47.992;8.820;2022-07-29T13:17:20;3.05;;;1.90;;
48042;SDS011;33988;47.992;8.820;2022-07-29T13:20:07;2.22;;;1.80;;
48042;SDS011;33988;47.992;8.820;2022-07-29T13:22:38;1.98;;;1.60;;
48042;SDS011;33988;47.992;8.820;2022-07-29T13:25:09;1.92;;;1.58;;
48042;SDS011;33988;47.992;8.820;2022-07-29T13:27:37;2.30;;;1.45;;
48042;SDS011;33988;47.992;8.820;2022-07-29T13:30:06;2.78;;;1.70;;
48042;SDS011;33988;47.992;8.820;2022-07-29T13:32:37;2.10;;;1.90;;
48042;SDS011;33988;47.992;8.820;2022-07-29T13:35:09;2.25;;;2.05;;
48042;SDS011;33988;47.992;8.820;2022-07-29T13:37:38;3.13;;;2.13;;
48042;SDS011;33988;47.992;8.820;2022-07-29T13:40:10;2.50;;;2.13;;
48042;SDS011;33988;47.992;8.820;2022-07-29T13:42:41;2.67;;;2.38;;
48042;SDS011;33988;47.992;8.820;2022-07-29T13:45:11;2.40;;;2.20;;
48042;SDS011;33988;47.992;8.820;2022-07-29T13:47:38;2.85;;;2.55;;
48042;SDS011;33988;47.992;8.820;2022-07-29T13:50:12;2.00;;;1.90;;
48042;SDS011;33988;47.992;8.820;2022-07-29T13:52:39;3.05;;;1.92;;
48042;SDS011;33988;47.992;8.820;2022-07-29T13:55:06;2.40;;;2.20;;
48042;SDS011;33988;47.992;8.820;2022-07-29T13:57:34;2.30;;;2.10;;
48042;SDS011;33988;47.992;8.820;2022-07-29T14:00:04;2.28;;;2.08;;
48042;SDS011;33988;47.992;8.820;2022-07-29T14:02:35;3.30;;;2.20;;
48042;SDS011;33988;47.992;8.820;2022-07-29T14:05:05;2.60;;;2.20;;
48042;SDS011;33988;47.992;8.820;2022-07-29T14:07:34;4.80;;;2.28;;
48042;SDS011;33988;47.992;8.820;2022-07-29T14:10:06;3.97;;;2.63;;
48042;SDS011;33988;47.992;8.820;2022-07-29T14:12:34;2.75;;;2.30;;
48042;SDS011;33988;47.992;8.820;2022-07-29T14:15:00;5.40;;;2.80;;
48042;SDS011;33988;47.992;8.820;2022-07-29T14:17:30;4.03;;;2.83;;
48042;SDS011;33988;47.992;8.820;2022-07-29T14:19:57;5.20;;;2.80;;
48042;SDS011;33988;47.992;8.820;2022-07-29T14:22:24;2.95;;;2.47;;
48042;SDS011;33988;47.992;8.820;2022-07-29T14:24:51;3.08;;;2.70;;
48042;SDS011;33988;47.992;8.820;2022-07-29T14:27:18;3.90;;;2.60;;
48042;SDS011;33988;47.992;8.820;2022-07-29T14:30:03;2.63;;;2.33;;
48042;SDS011;33988;47.992;8.820;2022-07-29T14:32:31;2.60;;;2.28;;
48042;SDS011;33988;47.992;8.820;2022-07-29T14:34:58;5.47;;;3.22;;
48042;SDS011;33988;47.992;8.820;2022-07-29T14:37:30;4.57;;;3.20;;
48042;SDS011;33988;47.992;8.820;2022-07-29T14:40:05;5.28;;;3.17;;
48042;SDS011;33988;47.992;8.820;2022-07-29T14:42:33;3.00;;;2.70;;
48042;SDS011;33988;47.992;8.820;2022-07-29T14:45:00;3.72;;;2.70;;
48042;SDS011;33988;47.992;8.820;2022-07-29T14:47:27;3.30;;;2.95;;
48042;SDS011;33988;47.992;8.820;2022-07-29T14:49:54;5.93;;;3.75;;
48042;SDS011;33988;47.992;8.820;2022-07-29T14:52:21;4.13;;;2.90;;
48042;SDS011;33988;47.992;8.820;2022-07-29T14:54:48;4.47;;;2.58;;
48042;SDS011;33988;47.992;8.820;2022-07-29T14:57:15;2.58;;;2.30;;
48042;SDS011;33988;47.992;8.820;2022-07-29T14:59:44;3.33;;;2.50;;
48042;SDS011;33988;47.992;8.820;2022-07-29T15:04:42;2.53;;;1.92;;
48042;SDS011;33988;47.992;8.820;2022-07-29T15:07:12;3.85;;;2.70;;
48042;SDS011;33988;47.992;8.820;2022-07-29T15:09:39;4.82;;;2.35;;
48042;SDS011;33988;47.992;8.820;2022-07-29T15:12:15;3.72;;;2.67;;
48042;SDS011;33988;47.992;8.820;2022-07-29T15:14:42;4.47;;;2.47;;
48042;SDS011;33988;47.992;8.820;2022-07-29T15:17:11;2.72;;;2.33;;
48042;SDS011;33988;47.992;8.820;2022-07-29T15:19:38;5.32;;;2.60;;
48042;SDS011;33988;47.992;8.820;2022-07-29T15:22:10;4.05;;;2.78;;
48042;SDS011;33988;47.992;8.820;2022-07-29T15:24:39;3.40;;;2.53;;
48042;SDS011;33988;47.992;8.820;2022-07-29T15:27:06;2.58;;;2.35;;
48042;SDS011;33988;47.992;8.820;2022-07-29T15:29:35;2.78;;;2.58;;
48042;SDS011;33988;47.992;8.820;2022-07-29T15:32:03;2.45;;;2.25;;
48042;SDS011;33988;47.992;8.820;2022-07-29T15:34:35;2.90;;;2.38;;
48042;SDS011;33988;47.992;8.820;2022-07-29T15:37:03;3.63;;;2.35;;
48042;SDS011;33988;47.992;8.820;2022-07-29T15:39:35;3.33;;;2.70;;
48042;SDS011;33988;47.992;8.820;2022-07-29T15:42:04;3.17;;;2.72;;
48042;SDS011;33988;47.992;8.820;2022-07-29T15:44:34;2.40;;;2.20;;
48042;SDS011;33988;47.992;8.820;2022-07-29T15:47:03;3.95;;;2.40;;
48042;SDS011;33988;47.992;8.820;2022-07-29T15:49:36;4.35;;;2.40;;
48042;SDS011;33988;47.992;8.820;2022-07-29T15:52:15;2.58;;;2.35;;
48042;SDS011;33988;47.992;8.820;2022-07-29T15:54:51;2.63;;;2.42;;
48042;SDS011;33988;47.992;8.820;2022-07-29T15:57:23;2.70;;;2.50;;
48042;SDS011;33988;47.992;8.820;2022-07-29T15:59:52;2.85;;;2.35;;
48042;SDS011;33988;47.992;8.820;2022-07-29T16:02:20;2.70;;;2.33;;
48042;SDS011;33988;47.992;8.820;2022-07-29T16:04:47;2.78;;;2.50;;
48042;SDS011;33988;47.992;8.820;2022-07-29T16:07:16;2.72;;;2.33;;
48042;SDS011;33988;47.992;8.820;2022-07-29T16:09:45;2.58;;;2.33;;
48042;SDS011;33988;47.992;8.820;2022-07-29T16:12:18;5.68;;;2.72;;
48042;SDS011;33988;47.992;8.820;2022-07-29T16:14:45;3.22;;;2.35;;
48042;SDS011;33988;47.992;8.820;2022-07-29T16:17:17;2.55;;;2.08;;
48042;SDS011;33988;47.992;8.820;2022-07-29T16:19:44;2.58;;;2.38;;